Time;durP1;ratioP1;P1;durP2;ratioP2;P2;SDS_P1;SDS_P2;PMS_P1;PMS_P2;Temp;Humidity;BMP_temperature;BMP_pressure;BME280_temperature;BME280_humidity;BME280_pressure;Samples;Min_cycle;Max_cycle;Signal;HPM_P1;HPM_P2
2024/01/07 00:01:23;;;;;;;0.60;0.60;;;;;;;-0.26;100.00;101570.50;5093803;28;20519;-57
2024/01/07 00:03:49;;;;;;;0.50;0.50;;;;;;;-0.27;100.00;101573.78;5093033;28;20028;-57
2024/01/07 00:06:14;;;;;;;0.40;0.40;;;;;;;-0.28;100.00;101577.09;5093652;28;20071;-57
2024/01/07 00:08:39;;;;;;;0.40;0.40;;;;;;;-0.26;100.00;101576.47;5093664;28;20031;-57
2024/01/07 00:11:04;;;;;;;0.50;0.50;;;;;;;-0.26;100.00;101581.53;5093515;28;20081;-57
2024/01/07 00:13:30;;;;;;;0.40;0.40;;;;;;;-0.27;100.00;101581.38;5093700;28;20031;-57
2024/01/07 00:15:55;;;;;;;0.40;0.40;;;;;;;-0.26;100.00;101585.69;5093582;28;20855;-57
2024/01/07 00:18:22;;;;;;;0.40;0.40;;;;;;;-0.26;100.00;101594.19;5093010;28;20024;-57
2024/01/07 00:20:47;;;;;;;0.50;0.50;;;;;;;-0.26;100.00;101590.75;5093446;28;20020;-57
2024/01/07 00:23:12;;;;;;;0.40;0.40;;;;;;;-0.25;100.00;101587.47;5093027;28;20039;-57
2024/01/07 00:25:38;;;;;;;0.43;0.43;;;;;;;-0.26;100.00;101591.66;5093233;28;20023;-57
2024/01/07 00:28:03;;;;;;;0.40;0.40;;;;;;;-0.23;100.00;101596.97;5093669;28;20447;-57
2024/01/07 00:30:29;;;;;;;0.47;0.47;;;;;;;-0.22;100.00;101597.84;5091965;28;20024;-57
2024/01/07 00:32:54;;;;;;;0.50;0.50;;;;;;;-0.20;100.00;101596.34;5093092;28;20020;-58
2024/01/07 00:35:20;;;;;;;0.40;0.40;;;;;;;-0.18;100.00;101605.00;5092943;28;20044;-57
2024/01/07 00:37:45;;;;;;;0.50;0.50;;;;;;;-0.22;100.00;101610.53;5092522;28;20024;-57
2024/01/07 00:40:11;;;;;;;0.50;0.50;;;;;;;-0.22;100.00;101618.13;5093293;28;20020;-57
2024/01/07 00:42:36;;;;;;;0.52;0.52;;;;;;;-0.23;100.00;101616.38;5093532;28;20016;-57
2024/01/07 00:45:02;;;;;;;0.60;0.60;;;;;;;-0.26;100.00;101611.03;5092621;28;20043;-57
2024/01/07 00:47:28;;;;;;;0.50;0.50;;;;;;;-0.26;100.00;101616.09;5092847;28;20463;-57
2024/01/07 00:49:53;;;;;;;0.50;0.50;;;;;;;-0.28;100.00;101617.63;5093180;28;20028;-57
2024/01/07 00:52:18;;;;;;;0.40;0.40;;;;;;;-0.28;100.00;101615.09;5092045;28;20081;-57
2024/01/07 00:54:44;;;;;;;0.50;0.50;;;;;;;-0.26;100.00;101621.16;5093424;28;20028;-57
2024/01/07 00:57:12;;;;;;;0.50;0.50;;;;;;;-0.25;100.00;101620.41;5093268;28;20028;-57
2024/01/07 00:59:37;;;;;;;0.45;0.45;;;;;;;-0.27;100.00;101619.38;5092508;28;20023;-58
2024/01/07 01:02:03;;;;;;;0.50;0.50;;;;;;;-0.26;100.00;101613.56;5093005;28;20020;-57
2024/01/07 01:04:28;;;;;;;0.47;0.47;;;;;;;-0.25;100.00;101622.94;5092792;28;20024;-57
2024/01/07 01:06:53;;;;;;;0.50;0.50;;;;;;;-0.24;100.00;101624.72;5092123;28;20081;-57
2024/01/07 01:09:18;;;;;;;0.40;0.40;;;;;;;-0.24;100.00;101629.78;5092947;28;20460;-57
2024/01/07 01:11:44;;;;;;;0.50;0.50;;;;;;;-0.24;100.00;101637.38;5093136;28;20028;-57
2024/01/07 01:14:09;;;;;;;0.50;0.50;;;;;;;-0.22;100.00;101641.84;5092001;28;20028;-57
2024/01/07 01:16:34;;;;;;;0.50;0.50;;;;;;;-0.23;100.00;101642.59;5092910;28;20036;-57
2024/01/07 01:19:00;;;;;;;0.50;0.50;;;;;;;-0.23;100.00;101636.63;5092794;28;20020;-57
2024/01/07 01:21:25;;;;;;;0.50;0.50;;;;;;;-0.24;100.00;101639.91;5092008;28;20025;-57
2024/01/07 01:23:50;;;;;;;0.40;0.40;;;;;;;-0.24;100.00;101639.91;5092808;28;20104;-57
2024/01/07 01:26:15;;;;;;;0.50;0.50;;;;;;;-0.26;100.00;101637.25;5092488;28;20035;-57
2024/01/07 01:28:41;;;;;;;0.40;0.40;;;;;;;-0.26;100.00;101647.41;5092339;28;20042;-57
2024/01/07 01:31:06;;;;;;;0.40;0.40;;;;;;;-0.24;100.00;101650.06;5092917;28;20035;-57
2024/01/07 01:33:31;;;;;;;0.50;0.50;;;;;;;-0.25;100.00;101653.34;5092040;28;20103;-57
2024/01/07 01:35:57;;;;;;;0.50;0.50;;;;;;;-0.25;100.00;101654.22;5092088;28;20050;-57
2024/01/07 01:38:22;;;;;;;0.40;0.40;;;;;;;-0.25;100.00;101653.34;5092365;28;20103;-57
2024/01/07 01:40:53;;;;;;;0.50;0.50;;;;;;;-0.26;100.00;101655.00;5092980;28;20596;-57
2024/01/07 01:43:23;;;;;;;0.40;0.40;;;;;;;-0.25;100.00;101664.34;5096136;28;20032;-57
2024/01/07 01:45:49;;;;;;;0.40;0.40;;;;;;;-0.26;100.00;101656.63;5096860;28;20043;-57
2024/01/07 01:48:14;;;;;;;0.40;0.40;;;;;;;-0.25;100.00;101663.47;5095570;28;20466;-58
2024/01/07 01:50:39;;;;;;;0.40;0.40;;;;;;;-0.25;100.00;101666.00;5096453;28;20024;-57
2024/01/07 01:53:05;;;;;;;0.50;0.50;;;;;;;-0.23;100.00;101669.56;5096696;28;20028;-57
2024/01/07 01:55:31;;;;;;;0.50;0.50;;;;;;;-0.25;100.00;101671.06;5095555;28;20016;-57
2024/01/07 01:57:59;;;;;;;0.40;0.40;;;;;;;-0.26;100.00;101679.41;5096237;28;20032;-57
2024/01/07 02:00:25;;;;;;;0.47;0.47;;;;;;;-0.27;100.00;101675.09;5096121;28;20188;-57
2024/01/07 02:02:50;;;;;;;0.50;0.50;;;;;;;-0.27;100.00;101676.00;5095444;28;20356;-57
2024/01/07 02:05:16;;;;;;;0.45;0.45;;;;;;;-0.25;100.00;101684.63;5095868;28;20020;-57
2024/01/07 02:07:41;;;;;;;0.40;0.40;;;;;;;-0.25;100.00;101683.75;5096131;28;20020;-57
2024/01/07 02:10:07;;;;;;;0.45;0.45;;;;;;;-0.27;100.00;101675.09;5095690;28;20020;-57
2024/01/07 02:12:32;;;;;;;0.50;0.50;;;;;;;-0.30;100.00;101679.91;5095933;28;20039;-57
2024/01/07 02:14:57;;;;;;;0.45;0.45;;;;;;;-0.34;100.00;101679.66;5095970;28;20069;-57
2024/01/07 02:17:23;;;;;;;0.50;0.50;;;;;;;-0.35;100.00;101689.63;5095175;28;20476;-57
2024/01/07 02:19:48;;;;;;;0.50;0.50;;;;;;;-0.39;100.00;101691.03;5096047;28;20024;-57
2024/01/07 02:22:13;;;;;;;0.50;0.50;;;;;;;-0.40;100.00;101694.31;5095419;28;20663;-57
2024/01/07 02:24:39;;;;;;;0.50;0.50;;;;;;;-0.41;100.00;101687.47;5095527;28;20028;-57
2024/01/07 02:27:04;;;;;;;0.50;0.50;;;;;;;-0.42;100.00;101694.94;5095967;28;20016;-57
2024/01/07 02:29:29;;;;;;;0.50;0.50;;;;;;;-0.42;100.00;101697.47;5095258;28;20361;-57
2024/01/07 02:31:55;;;;;;;0.30;0.30;;;;;;;-0.41;100.00;101696.72;5095230;28;20380;-57
2024/01/07 02:34:20;;;;;;;0.40;0.40;;;;;;;-0.42;100.00;101698.34;5095244;28;20123;-57
2024/01/07 02:36:45;;;;;;;0.50;0.50;;;;;;;-0.43;100.00;101694.03;5095449;28;20405;-57
2024/01/07 02:39:11;;;;;;;0.50;0.50;;;;;;;-0.43;100.00;101699.09;5094935;28;20066;-58
2024/01/07 02:41:36;;;;;;;0.50;0.50;;;;;;;-0.41;100.00;101702.66;5095628;28;20043;-57
2024/01/07 02:44:01;;;;;;;0.50;0.50;;;;;;;-0.42;100.00;101705.94;5095259;28;20028;-57
2024/01/07 02:46:26;;;;;;;0.50;0.50;;;;;;;-0.38;100.00;101708.00;5094709;28;20035;-57
2024/01/07 02:48:52;;;;;;;0.52;0.52;;;;;;;-0.40;100.00;101706.97;5095330;28;20104;-57
2024/01/07 02:51:17;;;;;;;0.47;0.47;;;;;;;-0.39;100.00;101711.31;5094961;28;20490;-57
2024/01/07 02:53:42;;;;;;;0.50;0.50;;;;;;;-0.40;100.00;101709.50;5094031;28;20015;-57
2024/01/07 02:56:08;;;;;;;0.40;0.40;;;;;;;-0.40;100.00;101714.59;5095295;28;20388;-57
2024/01/07 02:58:34;;;;;;;0.50;0.50;;;;;;;-0.40;100.00;101717.13;5094566;28;20031;-57
2024/01/07 03:01:00;;;;;;;0.50;0.50;;;;;;;-0.42;100.00;101718.59;5095309;28;20020;-57
2024/01/07 03:03:25;;;;;;;0.43;0.43;;;;;;;-0.41;100.00;101722.94;5094828;28;20088;-57
2024/01/07 03:05:51;;;;;;;0.40;0.40;;;;;;;-0.41;100.00;101722.94;5094592;28;20469;-57
2024/01/07 03:08:16;;;;;;;0.55;0.55;;;;;;;-0.40;100.00;101716.22;5095003;28;20051;-57
2024/01/07 03:10:41;;;;;;;0.50;0.50;;;;;;;-0.39;100.00;101720.53;5095172;28;20020;-57
2024/01/07 03:13:07;;;;;;;0.43;0.43;;;;;;;-0.39;100.00;101721.44;5094353;28;20384;-57
2024/01/07 03:15:32;;;;;;;0.50;0.50;;;;;;;-0.40;100.00;101723.81;5094678;28;20020;-57
2024/01/07 03:17:57;;;;;;;0.40;0.40;;;;;;;-0.40;100.00;101727.25;5094835;28;20471;-57
2024/01/07 03:20:22;;;;;;;0.60;0.60;;;;;;;-0.37;100.00;101729.16;5094015;28;20032;-57
2024/01/07 03:22:48;;;;;;;0.50;0.50;;;;;;;-0.36;100.00;101731.81;5094992;28;20027;-57
2024/01/07 03:25:13;;;;;;;0.40;0.40;;;;;;;-0.35;100.00;101731.06;5094426;28;20052;-57
2024/01/07 03:27:38;;;;;;;0.50;0.50;;;;;;;-0.35;100.00;101727.63;5094084;28;20023;-57
2024/01/07 03:30:05;;;;;;;0.50;0.50;;;;;;;-0.31;100.00;101728.78;5094678;28;20032;-57
2024/01/07 03:32:30;;;;;;;0.50;0.50;;;;;;;-0.31;100.00;101738.94;5094256;28;20046;-58
2024/01/07 03:34:55;;;;;;;0.50;0.50;;;;;;;-0.33;100.00;101736.25;5094144;28;20477;-57
2024/01/07 03:37:20;;;;;;;0.45;0.45;;;;;;;-0.30;100.00;101739.06;5094393;28;20045;-57
2024/01/07 03:39:47;;;;;;;0.50;0.50;;;;;;;-0.30;100.00;101746.66;5094174;28;20448;-57
2024/01/07 03:42:13;;;;;;;0.47;0.47;;;;;;;-0.28;100.00;101737.56;5093784;28;20040;-57
2024/01/07 03:44:38;;;;;;;0.45;0.45;;;;;;;-0.26;100.00;101741.13;5094426;28;20020;-57
2024/01/07 03:47:04;;;;;;;0.50;0.50;;;;;;;-0.27;100.00;101751.09;5094224;28;20376;-57
2024/01/07 03:49:30;;;;;;;0.50;0.50;;;;;;;-0.26;100.00;101747.81;5093220;28;20392;-57
2024/01/07 03:51:55;;;;;;;0.50;0.50;;;;;;;-0.29;100.00;101747.56;5094323;28;20093;-57
2024/01/07 03:54:21;;;;;;;0.50;0.50;;;;;;;-0.28;100.00;101754.41;5093843;28;20055;-57
2024/01/07 03:56:46;;;;;;;0.50;0.50;;;;;;;-0.19;100.00;101757.75;5093642;28;20041;-57
2024/01/07 03:59:11;;;;;;;0.40;0.40;;;;;;;-0.28;100.00;101754.41;5094027;28;20020;-57
2024/01/07 04:01:36;;;;;;;0.50;0.50;;;;;;;-0.30;100.00;101760.97;5093814;28;20103;-57
2024/01/07 04:04:02;;;;;;;0.40;0.40;;;;;;;-0.29;100.00;101755.16;5093235;28;20085;-57
2024/01/07 04:06:27;;;;;;;0.50;0.50;;;;;;;-0.30;100.00;101763.50;5093834;28;20059;-57
2024/01/07 04:08:52;;;;;;;0.50;0.50;;;;;;;-0.31;100.00;101760.09;5093069;28;20031;-57
2024/01/07 04:11:17;;;;;;;0.50;0.50;;;;;;;-0.31;100.00;101771.84;5093638;28;20073;-57
2024/01/07 04:13:43;;;;;;;0.50;0.50;;;;;;;-0.32;100.00;101773.50;5093659;28;20031;-57
2024/01/07 04:16:21;;;;;;;0.50;0.50;;;;;;;-0.29;100.00;101777.97;5092859;28;20589;-57
2024/01/07 04:18:47;;;;;;;0.45;0.45;;;;;;;-0.30;100.00;101778.72;5093897;28;20024;-57
2024/01/07 04:21:13;;;;;;;0.50;0.50;;;;;;;-0.33;100.00;101776.78;5093383;28;20020;-57
2024/01/07 04:23:40;;;;;;;0.40;0.40;;;;;;;-0.34;100.00;101788.59;5093250;28;20024;-57
2024/01/07 04:26:05;;;;;;;0.50;0.50;;;;;;;-0.30;100.00;101778.72;5093714;28;20125;-58
2024/01/07 04:28:31;;;;;;;0.43;0.43;;;;;;;-0.32;100.00;101783.66;5093249;28;20470;-57
2024/01/07 04:30:56;;;;;;;0.50;0.50;;;;;;;-0.34;100.00;101782.59;5092767;28;20032;-57
2024/01/07 04:33:21;;;;;;;0.50;0.50;;;;;;;-0.37;100.00;101789.94;5093090;28;20020;-58
2024/01/07 04:35:47;;;;;;;0.50;0.50;;;;;;;-0.35;100.00;101798.56;5093027;28;20048;-57
2024/01/07 04:38:13;;;;;;;0.40;0.40;;;;;;;-0.38;100.00;101796.63;5092690;28;20038;-57
2024/01/07 04:40:39;;;;;;;0.47;0.47;;;;;;;-0.35;100.00;101804.53;5093585;28;20028;-57
2024/01/07 04:43:04;;;;;;;0.50;0.50;;;;;;;-0.37;100.00;101803.50;5093171;28;20107;-57
2024/01/07 04:45:29;;;;;;;0.50;0.50;;;;;;;-0.37;100.00;101806.03;5092347;28;20537;-57
2024/01/07 04:47:55;;;;;;;0.50;0.50;;;;;;;-0.38;100.00;101809.31;5093227;28;20024;-57
2024/01/07 04:50:20;;;;;;;0.45;0.45;;;;;;;-0.37;100.00;101808.56;5092988;28;20024;-57
2024/01/07 04:52:46;;;;;;;0.43;0.43;;;;;;;-0.37;100.00;101807.69;5092780;28;20024;-57
2024/01/07 04:55:11;;;;;;;0.50;0.50;;;;;;;-0.40;100.00;101807.38;5092984;28;20027;-58
2024/01/07 04:57:37;;;;;;;0.47;0.47;;;;;;;-0.40;100.00;101814.97;5092883;28;20475;-57
2024/01/07 05:00:03;;;;;;;0.40;0.40;;;;;;;-0.42;100.00;101816.50;5092470;28;20502;-57
2024/01/07 05:02:29;;;;;;;0.50;0.50;;;;;;;-0.42;100.00;101811.44;5093099;28;20028;-57
2024/01/07 05:04:54;;;;;;;0.50;0.50;;;;;;;-0.42;100.00;101822.44;5093062;28;20487;-57
2024/01/07 05:07:19;;;;;;;0.50;0.50;;;;;;;-0.41;100.00;101819.16;5092198;28;20049;-57
2024/01/07 05:09:45;;;;;;;0.47;0.47;;;;;;;-0.42;100.00;101822.44;5093034;28;20031;-57
2024/01/07 05:12:10;;;;;;;0.50;0.50;;;;;;;-0.44;100.00;101828.13;5092027;28;20165;-57
2024/01/07 05:14:37;;;;;;;0.60;0.60;;;;;;;-0.44;100.00;101828.13;5092508;28;20024;-57
2024/01/07 05:17:02;;;;;;;0.47;0.47;;;;;;;-0.46;100.00;101833.06;5095097;28;20424;-57
2024/01/07 05:19:28;;;;;;;0.50;0.50;;;;;;;-0.52;100.00;101833.41;5096111;28;20020;-57
2024/01/07 05:21:53;;;;;;;0.40;0.40;;;;;;;-0.54;100.00;101836.56;5097198;28;20016;-57
2024/01/07 05:24:18;;;;;;;0.50;0.50;;;;;;;-0.56;100.00;101843.13;5096830;28;20122;-58
2024/01/07 05:26:44;;;;;;;0.50;0.50;;;;;;;-0.57;100.00;101839.72;5096273;28;20020;-57
2024/01/07 05:29:11;;;;;;;0.50;0.50;;;;;;;-0.58;100.00;101849.66;5096718;28;20460;-57
2024/01/07 05:31:36;;;;;;;0.50;0.50;;;;;;;-0.59;100.00;101856.38;5096392;28;20020;-58
2024/01/07 05:34:02;;;;;;;0.40;0.40;;;;;;;-0.58;100.00;101859.78;5096074;28;20051;-57
2024/01/07 05:36:27;;;;;;;0.50;0.50;;;;;;;-0.61;100.00;101854.47;5096309;28;20024;-57
2024/01/07 05:38:53;;;;;;;0.50;0.50;;;;;;;-0.63;100.00;101866.09;5096649;28;20023;-57
2024/01/07 05:41:18;;;;;;;0.40;0.40;;;;;;;-0.61;100.00;101864.59;5095949;28;20023;-57
2024/01/07 05:43:43;;;;;;;0.50;0.50;;;;;;;-0.63;100.00;101867.00;5096810;28;20063;-58
2024/01/07 05:46:08;;;;;;;0.40;0.40;;;;;;;-0.64;100.00;101870.28;5096348;28;20043;-57
2024/01/07 05:48:44;;;;;;;0.50;0.50;;;;;;;-0.63;100.00;101871.16;5095739;28;20024;-57
2024/01/07 05:51:10;;;;;;;0.47;0.47;;;;;;;-0.65;100.00;101875.19;5096337;28;20099;-57
2024/01/07 05:53:36;;;;;;;0.50;0.50;;;;;;;-0.63;100.00;101886.34;5096320;28;20021;-57
2024/01/07 05:56:01;;;;;;;0.50;0.50;;;;;;;-0.67;100.00;101883.53;5096209;28;20024;-57
2024/01/07 05:58:27;;;;;;;0.55;0.55;;;;;;;-0.66;100.00;101884.41;5096156;28;20028;-58
2024/01/07 06:00:52;;;;;;;0.50;0.50;;;;;;;-0.68;100.00;101889.34;5096324;28;20535;-57
2024/01/07 06:03:17;;;;;;;0.50;0.50;;;;;;;-0.69;100.00;101895.16;5095699;28;20027;-58
2024/01/07 06:05:43;;;;;;;0.40;0.40;;;;;;;-0.68;100.00;101899.47;5096196;28;20074;-57
2024/01/07 06:08:10;;;;;;;0.43;0.43;;;;;;;-0.66;100.00;101904.66;5096113;28;20020;-57
2024/01/07 06:10:35;;;;;;;0.50;0.50;;;;;;;-0.64;100.00;101895.59;5095667;28;20051;-57
2024/01/07 06:13:00;;;;;;;0.50;0.50;;;;;;;-0.60;100.00;101901.84;5096117;28;20421;-57
2024/01/07 06:15:25;;;;;;;0.50;0.50;;;;;;;-0.58;100.00;101902.84;5094936;28;20024;-57
2024/01/07 06:17:51;;;;;;;0.40;0.40;;;;;;;-0.61;100.00;101900.91;5096161;28;20123;-57
2024/01/07 06:20:17;;;;;;;0.50;0.50;;;;;;;-0.61;100.00;101912.69;5095834;28;20028;-57
2024/01/07 06:22:42;;;;;;;0.50;0.50;;;;;;;-0.59;100.00;101916.28;5095247;28;20039;-57
2024/01/07 06:25:08;;;;;;;0.50;0.50;;;;;;;-0.59;100.00;101921.34;5096134;28;20107;-57
2024/01/07 06:27:33;;;;;;;0.50;0.50;;;;;;;-0.62;100.00;101921.97;5095011;28;20031;-57
2024/01/07 06:29:58;;;;;;;0.50;0.50;;;;;;;-0.62;100.00;101928.63;5095225;28;20056;-57
2024/01/07 06:32:25;;;;;;;0.50;0.50;;;;;;;-0.54;100.00;101925.19;5095700;28;20032;-57
2024/01/07 06:34:50;;;;;;;0.45;0.45;;;;;;;-0.63;100.00;101936.97;5095425;28;20044;-57
2024/01/07 06:37:15;;;;;;;0.50;0.50;;;;;;;-0.65;100.00;101933.44;5094864;28;20040;-57
2024/01/07 06:39:41;;;;;;;0.50;0.50;;;;;;;-0.67;100.00;101941.78;5095695;28;20383;-57
2024/01/07 06:42:06;;;;;;;0.40;0.40;;;;;;;-0.67;100.00;101944.31;5095413;28;20020;-57
2024/01/07 06:44:31;;;;;;;0.60;0.60;;;;;;;-0.68;100.00;101952.66;5094693;28;20028;-57
2024/01/07 06:46:57;;;;;;;0.40;0.40;;;;;;;-0.70;100.00;101961.75;5095744;28;20028;-57
2024/01/07 06:49:22;;;;;;;0.45;0.45;;;;;;;-0.68;100.00;101959.34;5095082;28;20032;-57
2024/01/07 06:51:47;;;;;;;0.50;0.50;;;;;;;-0.68;100.00;101964.41;5094935;28;20555;-58
2024/01/07 06:54:12;;;;;;;0.50;0.50;;;;;;;-0.70;100.00;101971.88;5095159;28;20032;-57
2024/01/07 06:56:38;;;;;;;0.50;0.50;;;;;;;-0.69;100.00;101966.03;5095073;28;20028;-57
2024/01/07 06:59:03;;;;;;;0.50;0.50;;;;;;;-0.70;100.00;101965.91;5094772;28;20028;-57
2024/01/07 07:01:28;;;;;;;0.50;0.50;;;;;;;-0.71;100.00;101971.72;5094856;28;20251;-57
2024/01/07 07:03:53;;;;;;;0.60;0.60;;;;;;;-0.73;100.00;101974.09;5095076;28;20117;-57
2024/01/07 07:06:19;;;;;;;0.40;0.40;;;;;;;-0.73;100.00;101976.63;5094282;28;20027;-57
2024/01/07 07:08:45;;;;;;;0.50;0.50;;;;;;;-0.73;100.00;101978.28;5095161;28;20016;-57
2024/01/07 07:11:11;;;;;;;0.50;0.50;;;;;;;-0.76;100.00;101976.38;5094513;28;20507;-58
2024/01/07 07:13:37;;;;;;;0.50;0.50;;;;;;;-0.74;100.00;101990.03;5094392;28;20028;-57
2024/01/07 07:16:03;;;;;;;0.60;0.60;;;;;;;-0.76;100.00;101990.66;5095214;28;20089;-58
2024/01/07 07:18:28;;;;;;;0.45;0.45;;;;;;;-0.77;100.00;101984.69;5094343;28;20036;-57
2024/01/07 07:20:54;;;;;;;0.50;0.50;;;;;;;-0.76;100.00;101990.66;5094377;28;20097;-57
2024/01/07 07:23:19;;;;;;;0.50;0.50;;;;;;;-0.77;100.00;101994.81;5094662;28;20043;-57
2024/01/07 07:25:44;;;;;;;0.50;0.50;;;;;;;-0.78;100.00;102003.16;5093921;28;20016;-57
2024/01/07 07:28:10;;;;;;;0.60;0.60;;;;;;;-0.78;100.00;101998.09;5094307;28;20032;-58
2024/01/07 07:30:35;;;;;;;0.40;0.40;;;;;;;-0.78;100.00;102009.88;5094875;28;20028;-57
2024/01/07 07:33:00;;;;;;;0.40;0.40;;;;;;;-0.79;100.00;102011.50;5094020;28;20068;-57
2024/01/07 07:35:25;;;;;;;0.50;0.50;;;;;;;-0.81;100.00;102013.00;5093737;28;20046;-58
2024/01/07 07:37:51;;;;;;;0.40;0.40;;;;;;;-0.84;100.00;102023.75;5094217;28;20032;-58
2024/01/07 07:40:16;;;;;;;0.50;0.50;;;;;;;-0.84;100.00;102027.88;5092893;28;20028;-58
2024/01/07 07:42:42;;;;;;;0.50;0.50;;;;;;;-0.87;100.00;102033.56;5094589;28;20445;-57
2024/01/07 07:45:07;;;;;;;0.50;0.50;;;;;;;-0.88;100.00;102039.38;5094247;28;20024;-57
2024/01/07 07:47:33;;;;;;;0.50;0.50;;;;;;;-0.89;100.00;102047.72;5093562;28;20024;-57
2024/01/07 07:49:58;;;;;;;0.50;0.50;;;;;;;-0.88;100.00;102056.19;5094334;28;20099;-57
2024/01/07 07:52:25;;;;;;;0.40;0.40;;;;;;;-0.89;100.00;102059.47;5093704;28;20031;-57
2024/01/07 07:54:51;;;;;;;0.50;0.50;;;;;;;-0.88;100.00;102061.25;5093593;28;20027;-57
2024/01/07 07:57:17;;;;;;;0.40;0.40;;;;;;;-0.89;100.00;102064.53;5093475;28;20034;-57
2024/01/07 07:59:42;;;;;;;0.50;0.50;;;;;;;-0.92;100.00;102069.31;5093949;28;20051;-57
2024/01/07 08:02:08;;;;;;;0.47;0.47;;;;;;;-0.93;100.00;102067.53;5093674;28;20024;-57
2024/01/07 08:04:33;;;;;;;0.40;0.40;;;;;;;-0.96;100.00;102068.13;5093714;28;20028;-57
2024/01/07 08:07:00;;;;;;;0.60;0.60;;;;;;;-0.99;100.00;102070.38;5093749;28;20024;-57
2024/01/07 08:09:26;;;;;;;0.50;0.50;;;;;;;-1.00;100.00;102072.00;5093070;28;20020;-57
2024/01/07 08:11:51;;;;;;;0.60;0.60;;;;;;;-1.01;100.00;102070.22;5093887;28;20095;-57
2024/01/07 08:14:16;;;;;;;0.45;0.45;;;;;;;-1.00;100.00;102077.03;5093398;28;20064;-57
2024/01/07 08:16:42;;;;;;;0.50;0.50;;;;;;;-1.01;100.00;102085.41;5093297;28;20024;-56
2024/01/07 08:19:07;;;;;;;0.60;0.60;;;;;;;-1.02;100.00;102090.28;5093841;28;20020;-57
2024/01/07 08:21:32;;;;;;;0.50;0.50;;;;;;;-0.91;100.00;102096.41;5093087;28;20020;-58
2024/01/07 08:23:58;;;;;;;0.50;0.50;;;;;;;-1.02;100.00;102091.22;5093212;28;20027;-57
2024/01/07 08:26:24;;;;;;;0.50;0.50;;;;;;;-1.02;100.00;102091.22;5093276;28;20376;-57
2024/01/07 08:28:49;;;;;;;0.50;0.50;;;;;;;-1.00;100.00;102097.28;5093634;28;20460;-57
2024/01/07 08:31:14;;;;;;;0.45;0.45;;;;;;;-0.97;100.00;102103.41;5092881;28;20024;-57
2024/01/07 08:33:40;;;;;;;0.50;0.50;;;;;;;-1.00;100.00;102102.34;5093159;28;20058;-58
2024/01/07 08:36:05;;;;;;;0.50;0.50;;;;;;;-0.98;100.00;102114.25;5092773;28;20031;-57
2024/01/07 08:38:30;;;;;;;0.50;0.50;;;;;;;-1.01;100.00;102109.81;5092973;28;20036;-57
2024/01/07 08:40:56;;;;;;;0.50;0.50;;;;;;;-1.02;100.00;102113.97;5093179;28;20034;-57
2024/01/07 08:43:21;;;;;;;0.60;0.60;;;;;;;-1.01;100.00;102122.44;5092471;28;20056;-57
2024/01/07 08:45:47;;;;;;;0.50;0.50;;;;;;;-1.02;100.00;102121.56;5093537;28;20035;-57
2024/01/07 08:48:12;;;;;;;0.50;0.50;;;;;;;-1.02;100.00;102129.16;5092715;28;20028;-57
2024/01/07 08:50:38;;;;;;;0.50;0.50;;;;;;;-1.02;100.00;102126.63;5091943;28;20459;-57
2024/01/07 08:53:04;;;;;;;0.40;0.40;;;;;;;-1.00;100.00;102127.66;5093174;28;20428;-57
2024/01/07 08:55:30;;;;;;;0.60;0.60;;;;;;;-0.98;100.00;102124.38;5092645;28;20542;-57
2024/01/07 08:57:55;;;;;;;0.50;0.50;;;;;;;-1.00;100.00;102137.78;5092405;28;20028;-57
2024/01/07 09:00:25;;;;;;;0.40;0.40;;;;;;;-1.00;100.00;102137.78;5092735;28;20027;-57
2024/01/07 09:02:51;;;;;;;0.50;0.50;;;;;;;-0.97;100.00;102141.38;5093208;28;20024;-57
2024/01/07 09:05:16;;;;;;;0.60;0.60;;;;;;;-0.97;100.00;102147.31;5091878;28;20101;-58
2024/01/07 09:07:41;;;;;;;0.50;0.50;;;;;;;-0.96;100.00;102146.56;5092865;28;20077;-55
2024/01/07 09:10:10;;;;;;;0.40;0.40;;;;;;;-0.94;100.00;102154.31;5092827;28;20016;-56
2024/01/07 09:12:36;;;;;;;0.60;0.60;;;;;;;-0.95;100.00;102155.94;5092302;28;20388;-58
2024/01/07 09:15:01;;;;;;;0.60;0.60;;;;;;;-0.94;100.00;102160.28;5093084;28;20020;-58
2024/01/07 09:17:26;;;;;;;0.40;0.40;;;;;;;-0.92;100.00;102160.41;5092332;28;20043;-58
2024/01/07 09:19:52;;;;;;;0.40;0.40;;;;;;;-0.91;100.00;102167.28;5092532;28;20525;-57
2024/01/07 09:22:17;;;;;;;0.50;0.50;;;;;;;-0.92;100.00;102170.53;5091885;28;20024;-57
2024/01/07 09:24:42;;;;;;;0.55;0.55;;;;;;;-0.91;100.00;102172.34;5092536;28;20024;-57
2024/01/07 09:27:08;;;;;;;0.50;0.50;;;;;;;-0.93;100.00;102183.94;5091744;28;20947;-58
2024/01/07 09:29:33;;;;;;;0.50;0.50;;;;;;;-0.96;100.00;102188.72;5091494;28;20135;-57
2024/01/07 09:31:59;;;;;;;0.50;0.50;;;;;;;-0.99;100.00;102186.78;5092497;28;20471;-57
2024/01/07 09:34:24;;;;;;;0.60;0.60;;;;;;;-1.01;100.00;102195.84;5091450;28;20481;-57
2024/01/07 09:36:50;;;;;;;0.50;0.50;;;;;;;-1.05;100.00;102196.28;5091832;28;20030;-57
2024/01/07 09:39:15;;;;;;;0.50;0.50;;;;;;;-1.07;100.00;102198.69;5090544;28;20016;-57
2024/01/07 09:41:40;;;;;;;0.57;0.57;;;;;;;-1.08;100.00;102204.47;5091025;28;20449;-57
2024/01/07 09:44:07;;;;;;;0.47;0.47;;;;;;;-1.09;100.00;102210.25;5091661;28;20076;-56
2024/01/07 09:46:37;;;;;;;0.60;0.60;;;;;;;-1.09;100.00;102216.97;5091771;28;20394;-57
2024/01/07 09:49:02;;;;;;;0.60;0.60;;;;;;;-1.08;100.00;102214.59;5092442;28;20111;-56
2024/01/07 09:51:29;;;;;;;0.50;0.50;;;;;;;-1.05;100.00;102214.88;5092061;28;20158;-57
2024/01/07 09:53:58;;;;;;;0.50;0.50;;;;;;;-1.08;100.00;102222.19;5091798;28;20454;-57
2024/01/07 09:56:27;;;;;;;0.60;0.60;;;;;;;-1.05;100.00;102230.06;5092009;28;20030;-56
2024/01/07 09:58:52;;;;;;;0.57;0.57;;;;;;;-1.00;100.00;102228.00;5092241;28;20016;-57
2024/01/07 10:01:18;;;;;;;0.50;0.50;;;;;;;-1.02;100.00;102227.84;5095100;28;20039;-57
2024/01/07 10:03:43;;;;;;;0.50;0.50;;;;;;;-0.98;100.00;102233.22;5107220;28;20031;-57
2024/01/07 10:06:11;;;;;;;0.50;0.50;;;;;;;-0.97;100.00;102233.34;5105651;28;20123;-57
2024/01/07 10:08:37;;;;;;;0.40;0.40;;;;;;;-0.97;100.00;102237.53;5104431;28;20024;-57
2024/01/07 10:11:03;;;;;;;0.50;0.50;;;;;;;-1.02;100.00;102240.50;5116622;28;20049;-57
2024/01/07 10:13:28;;;;;;;0.43;0.43;;;;;;;-1.02;100.00;102239.59;5115737;28;20022;-57
2024/01/07 10:15:54;;;;;;;0.50;0.50;;;;;;;-1.04;100.00;102247.03;5108409;28;20028;-57
2024/01/07 10:18:20;;;;;;;0.47;0.47;;;;;;;-1.09;100.00;102248.22;5104932;28;20020;-57
2024/01/07 10:20:45;;;;;;;0.50;0.50;;;;;;;-1.12;100.00;102240.34;5105122;27;20030;-57
2024/01/07 10:23:11;;;;;;;0.50;0.50;;;;;;;-1.13;100.00;102250.31;5107135;28;20019;-57
2024/01/07 10:25:37;;;;;;;0.50;0.50;;;;;;;-1.14;100.00;102254.47;5107706;28;20031;-57
2024/01/07 10:28:03;;;;;;;0.50;0.50;;;;;;;-1.16;100.00;102251.78;5106495;28;20098;-57
2024/01/07 10:30:29;;;;;;;0.50;0.50;;;;;;;-1.13;100.00;102256.25;5106231;28;20539;-57
2024/01/07 10:32:58;;;;;;;0.55;0.55;;;;;;;-1.19;100.00;102260.69;5100312;28;20471;-56
2024/01/07 10:35:35;;;;;;;0.50;0.50;;;;;;;-1.20;100.00;102264.88;5105332;28;20054;-57
2024/01/07 10:38:01;;;;;;;0.40;0.40;;;;;;;-1.23;100.00;102254.44;5104236;28;20073;-57
2024/01/07 10:40:27;;;;;;;0.60;0.60;;;;;;;-1.25;100.00;102255.03;5104640;28;20379;-56
2024/01/07 10:42:54;;;;;;;0.50;0.50;;;;;;;-1.28;100.00;102252.19;5104519;28;20122;-57
2024/01/07 10:45:20;;;;;;;0.50;0.50;;;;;;;-1.25;100.00;102250.88;5094975;28;20035;-56
2024/01/07 10:47:49;;;;;;;0.52;0.52;;;;;;;-1.24;100.00;102256.81;5095158;28;20016;-57
2024/01/07 10:50:17;;;;;;;0.50;0.50;;;;;;;-1.18;100.00;102252.38;5094500;28;20040;-57
2024/01/07 10:52:48;;;;;;;0.40;0.40;;;;;;;-1.14;100.00;102253.59;5095398;28;20482;-57
2024/01/07 10:55:14;;;;;;;0.52;0.52;;;;;;;-1.08;100.00;102255.06;5095055;28;20031;-57
2024/01/07 10:57:40;;;;;;;0.50;0.50;;;;;;;-1.05;100.00;102260.44;5094813;28;20035;-57
2024/01/07 11:00:07;;;;;;;0.50;0.50;;;;;;;-0.98;100.00;102261.97;5095288;28;20036;-57
2024/01/07 11:02:42;;;;;;;0.50;0.50;;;;;;;-0.92;100.00;102262.53;5094489;28;20073;-57
2024/01/07 11:05:10;;;;;;;0.50;0.50;;;;;;;-0.80;100.00;102262.88;5094890;28;20028;-57
2024/01/07 11:07:43;;;;;;;0.57;0.57;;;;;;;-0.70;100.00;102268.09;5095290;28;20161;-57
2024/01/07 11:10:22;;;;;;;0.40;0.40;;;;;;;-0.64;100.00;102265.25;5094834;28;20027;-57